White Sulphur Springs, New York
Current Conditions -  °F | °C
As of 11:15 PM on Tuesday 27 Jan 2015 (Local Time) from KMSV Reporting Station
Few Clouds Few Clouds  
Wind Chill: -5°   Ceiling: Unl
Heat Index: 10°   Visibility: 10mi
Dew Point:   Wind: 14mph
Humidity: 62%   Direction: 330°NNW
Pressure: 29.79"   Gusts: 22mph
Location:  41.8°N, 74.83°W
Report Text: KMSV 280415Z AUTO 33012G19KT 10SM FEW120 M12/M18 A2979 RMK AO1
Loading
Personal Weather Stations






























Interactive Weather Map New forecast layout! Learn more

10-Day Weather Forecast

Advertisements
Track Severe Weather on mobile